Hovedside
METAR-TAF:

METAR-TAF

Lufthavner :

Pearson Field

Vancouver, Washington, USA

breddegrad: 45-37-24N, lengdegrad: 122-39-23W, høyde over havet: 7 m

Gjeldene værobservasjon

Denne rapporten ble laget for 27 minutter siden, klokken 17:53 UTC
Vind 7 kt fra Vest-nordvest, skiftende mellom Vest-sørvest og Nordvest
Temperatur 16°C
Luftfuktighet 45%
Trykk 1019 hPa
Sikt: 16.1 km
Skyfri himmel

METAR: KVUO 091753Z AUTO 29007KT 240V320 10SM CLR 16/04 A3009 RMK AO2 SLP190 T01610039 10161 20039 58009

Tid: 11:20 (18:20 UTC)


TAF: fraværende

Værobservasjoner og værvarsel for over 4000 flyplasser (METAR- og TAF-rapporter).

Tilgjengelige stasjoner er representert av de røde og gule prikkene på kartet.

Hold musepekeren over prikken for å se navnet på stasjonen.

Klikk så for å se værobservasjoner og -varsler.

For å forandre kartet kan du klikke på den grønne knappen med svart kryss for å zoome inn, på den grønne knappen med strek for å zoome ut, eller på de grønne pilene for å se tilstøtende kart.


METAR-TAF: